createdAt,value
2022-11-17T00:02:21.029Z,99672.72
2022-11-17T00:04:47.572Z,99668.00
2022-11-17T00:07:14.166Z,99675.50
2022-11-17T00:09:41.502Z,99676.81
2022-11-17T00:12:32.472Z,99676.09
2022-11-17T00:14:59.464Z,99673.97
2022-11-17T00:17:26.015Z,99673.88
2022-11-17T00:20:11.043Z,99691.38
2022-11-17T00:22:37.507Z,99696.13
2022-11-17T00:25:04.724Z,99705.78
2022-11-17T00:27:31.218Z,99680.94
2022-11-17T00:29:57.727Z,99689.69
2022-11-17T00:32:42.961Z,99685.22
2022-11-17T00:35:09.490Z,99697.22
2022-11-17T00:37:38.114Z,99697.88
2022-11-17T00:40:05.982Z,99691.84
2022-11-17T00:42:32.637Z,99684.47
2022-11-17T00:44:59.112Z,99711.47
2022-11-17T00:47:25.588Z,99685.69
2022-11-17T00:49:52.100Z,99686.53
2022-11-17T00:52:18.610Z,99689.97
2022-11-17T00:54:45.076Z,99686.53
2022-11-17T00:57:11.653Z,99693.72
2022-11-17T00:59:38.154Z,99699.91
2022-11-17T01:02:04.651Z,99710.34
2022-11-17T01:04:31.367Z,99683.56
2022-11-17T01:06:57.976Z,99689.41
2022-11-17T01:09:26.346Z,99677.59
2022-11-17T01:11:54.018Z,99679.53
2022-11-17T01:14:30.308Z,99708.84
2022-11-17T01:16:56.869Z,99682.44
2022-11-17T01:19:23.776Z,99706.97
2022-11-17T01:21:56.420Z,99717.41
2022-11-17T01:27:12.970Z,99692.03
2022-11-17T01:29:48.739Z,99679.34
2022-11-17T01:32:17.372Z,99694.63
2022-11-17T01:34:43.849Z,99680.94
2022-11-17T01:37:19.431Z,99684.94
2022-11-17T01:42:27.424Z,99685.38
2022-11-17T01:51:07.384Z,99699.78
2022-11-17T01:53:35.615Z,99692.28
2022-11-17T01:59:52.261Z,99704.06
2022-11-17T02:02:20.481Z,99699.31
2022-11-17T02:04:55.676Z,99700.72
2022-11-17T02:07:28.376Z,99691.13
2022-11-17T02:09:56.176Z,99673.19
2022-11-17T02:12:25.833Z,99673.66
2022-11-17T02:14:53.990Z,99680.44
2022-11-17T02:17:22.892Z,99693.53
2022-11-17T02:26:47.180Z,99675.69
2022-11-17T02:29:19.794Z,99681.78
2022-11-17T02:31:58.834Z,99679.78
2022-11-17T02:34:25.295Z,99670.00
2022-11-17T02:37:07.843Z,99684.47
2022-11-17T02:39:47.342Z,99660.69
2022-11-17T02:42:47.833Z,99702.88
2022-11-17T02:45:30.449Z,99664.41
2022-11-17T02:48:00.899Z,99685.16
2022-11-17T02:50:29.666Z,99665.06
2022-11-17T02:52:56.812Z,99659.00
2022-11-17T02:55:23.555Z,99675.28
2022-11-17T02:57:50.022Z,99676.66
2022-11-17T03:00:19.055Z,99663.34
2022-11-17T03:03:23.012Z,99661.34
2022-11-17T03:06:03.947Z,99668.09
2022-11-17T03:08:56.829Z,99663.44
2022-11-17T03:11:33.314Z,99672.91
2022-11-17T03:14:08.769Z,99661.47
2022-11-17T03:16:41.062Z,99689.16
2022-11-17T03:19:28.911Z,99665.56
2022-11-17T03:22:05.248Z,99669.25
2022-11-17T03:24:38.896Z,99671.63
2022-11-17T03:27:12.730Z,99665.59
2022-11-17T03:29:43.674Z,99674.06
2022-11-17T03:32:11.179Z,99676.63
2022-11-17T03:34:44.506Z,99679.50
2022-11-17T03:37:14.311Z,99670.09
2022-11-17T03:39:49.511Z,99677.06
2022-11-17T03:42:21.559Z,99667.28
2022-11-17T03:44:53.185Z,99680.53
2022-11-17T03:47:23.625Z,99677.06
2022-11-17T03:50:16.244Z,99678.09
2022-11-17T03:52:44.925Z,99675.22
2022-11-17T03:55:13.274Z,99676.00
2022-11-17T03:58:01.107Z,99680.97
2022-11-17T04:00:27.781Z,99666.56
2022-11-17T04:02:56.198Z,99655.53
2022-11-17T04:05:22.867Z,99670.69
2022-11-17T04:07:49.647Z,99673.56
2022-11-17T04:10:19.595Z,99669.59
2022-11-17T04:13:06.356Z,99666.09
2022-11-17T04:15:51.475Z,99665.91
2022-11-17T04:18:18.981Z,99667.91
2022-11-17T04:20:49.176Z,99673.66
2022-11-17T04:23:16.240Z,99671.69
2022-11-17T04:26:03.386Z,99667.75
2022-11-17T04:28:37.797Z,99680.44
2022-11-17T04:31:17.560Z,99665.94
2022-11-17T04:33:49.547Z,99675.19
2022-11-17T04:36:19.507Z,99676.34
2022-11-17T04:38:49.212Z,99682.94
2022-11-17T04:41:36.332Z,99678.03
2022-11-17T04:44:03.691Z,99669.28
2022-11-17T04:46:32.203Z,99670.59
2022-11-17T04:48:59.047Z,99664.56
2022-11-17T04:51:26.958Z,99674.97
2022-11-17T04:53:53.709Z,99681.69
2022-11-17T04:56:22.164Z,99684.56
2022-11-17T04:58:49.607Z,99679.22
2022-11-17T05:01:18.070Z,99670.59
2022-11-17T05:03:53.590Z,99687.19
2022-11-17T05:06:26.690Z,99677.19
2022-11-17T05:08:58.163Z,99676.50
2022-11-17T05:11:45.403Z,99678.41
2022-11-17T05:14:13.515Z,99683.72
2022-11-17T05:17:00.526Z,99672.81
2022-11-17T05:19:31.786Z,99684.78
2022-11-17T05:21:58.364Z,99669.47
2022-11-17T05:24:26.498Z,99678.34
2022-11-17T05:26:54.153Z,99686.81
2022-11-17T05:29:22.701Z,99688.25
2022-11-17T05:31:49.772Z,99680.59
2022-11-17T05:34:17.606Z,99672.88
2022-11-17T05:36:44.590Z,99683.78
2022-11-17T05:39:11.264Z,99688.00
2022-11-17T05:41:37.811Z,99678.06
2022-11-17T05:44:05.047Z,99684.31
2022-11-17T05:46:31.838Z,99675.38
2022-11-17T05:48:58.951Z,99677.22
2022-11-17T05:51:25.563Z,99674.72
2022-11-17T05:53:52.124Z,99673.34
2022-11-17T05:56:33.779Z,99678.41
2022-11-17T05:59:15.007Z,99673.22
2022-11-17T06:01:49.555Z,99692.72
2022-11-17T06:04:19.554Z,99678.78
2022-11-17T06:06:47.754Z,99681.63
2022-11-17T06:09:15.421Z,99688.72
2022-11-17T06:11:41.947Z,99688.91
2022-11-17T06:14:08.474Z,99683.47
2022-11-17T06:16:40.978Z,99682.81
2022-11-17T06:19:13.362Z,99697.63
2022-11-17T06:22:09.841Z,99687.88
2022-11-17T06:24:26.424Z,99691.66
2022-11-17T06:26:53.206Z,99682.06
2022-11-17T06:29:20.099Z,99686.69
2022-11-17T06:31:47.403Z,99687.22
2022-11-17T06:34:14.299Z,99696.25
2022-11-17T06:36:40.882Z,99703.69
2022-11-17T06:39:07.418Z,99706.31
2022-11-17T06:41:34.034Z,99695.41
2022-11-17T06:44:01.111Z,99699.63
2022-11-17T06:46:37.986Z,99699.47
2022-11-17T06:49:05.514Z,99695.28
2022-11-17T06:51:32.090Z,99698.44
2022-11-17T06:53:58.643Z,99696.13
2022-11-17T06:56:25.226Z,99710.44
2022-11-17T06:58:51.861Z,99704.72
2022-11-17T07:01:18.459Z,99710.13
2022-11-17T07:03:45.047Z,99695.41
2022-11-17T07:06:12.540Z,99689.44
2022-11-17T07:08:39.830Z,99702.38
2022-11-17T07:11:11.652Z,99695.16
2022-11-17T07:13:38.904Z,99708.47
2022-11-17T07:16:22.907Z,99700.72
2022-11-17T07:18:50.793Z,99709.47
2022-11-17T07:21:18.198Z,99700.88
2022-11-17T07:23:45.940Z,99717.06
2022-11-17T07:26:12.557Z,99694.63
2022-11-17T07:28:39.325Z,99703.75
2022-11-17T07:31:08.059Z,99692.38
2022-11-17T07:33:35.124Z,99708.50
2022-11-17T07:36:12.538Z,99707.84
2022-11-17T07:38:40.152Z,99710.50
2022-11-17T07:41:08.118Z,99720.94
2022-11-17T07:43:35.462Z,99718.44
2022-11-17T07:46:06.942Z,99710.69
2022-11-17T07:48:33.919Z,99718.63
2022-11-17T07:51:01.712Z,99726.19
2022-11-17T07:53:31.822Z,99715.59
2022-11-17T07:56:06.822Z,99715.06
2022-11-17T07:58:34.011Z,99736.09
2022-11-17T08:01:23.000Z,99709.84
2022-11-17T08:03:49.501Z,99720.16
2022-11-17T08:06:17.053Z,99734.94
2022-11-17T08:08:43.640Z,99733.09
2022-11-17T08:11:12.026Z,99728.72
2022-11-17T08:13:40.133Z,99726.69
2022-11-17T08:16:07.887Z,99720.66
2022-11-17T08:18:35.797Z,99734.28
2022-11-17T08:21:05.269Z,99721.59
2022-11-17T08:23:32.586Z,99724.00
2022-11-17T08:25:59.395Z,99713.59
2022-11-17T08:28:26.395Z,99717.28
2022-11-17T08:30:53.002Z,99714.59
2022-11-17T08:33:19.526Z,99723.66
2022-11-17T08:35:46.021Z,99713.94
2022-11-17T08:38:15.438Z,99705.53
2022-11-17T08:40:42.797Z,99723.31
2022-11-17T08:43:09.453Z,99700.44
2022-11-17T08:45:36.032Z,99719.78
2022-11-17T08:48:04.129Z,99713.25
2022-11-17T08:50:30.710Z,99708.16
2022-11-17T08:52:57.284Z,99704.97
2022-11-17T08:55:23.965Z,99714.56
2022-11-17T08:57:50.523Z,99720.28
2022-11-17T09:00:19.896Z,99719.63
2022-11-17T09:02:46.447Z,99713.56
2022-11-17T09:05:12.994Z,99709.31
2022-11-17T09:07:39.670Z,99710.56
2022-11-17T09:10:06.864Z,99708.19
2022-11-17T09:12:33.349Z,99718.75
2022-11-17T09:14:59.870Z,99706.69
2022-11-17T09:17:26.507Z,99712.19
2022-11-17T09:19:52.999Z,99706.81
2022-11-17T09:22:19.991Z,99705.69
2022-11-17T09:24:46.582Z,99710.56
2022-11-17T09:27:13.944Z,99707.22
2022-11-17T09:29:40.447Z,99702.84
2022-11-17T09:32:06.930Z,99700.16
2022-11-17T09:34:33.582Z,99711.63
2022-11-17T09:37:00.124Z,99706.56
2022-11-17T09:39:26.707Z,99692.41
2022-11-17T09:41:56.218Z,99701.78
2022-11-17T09:44:40.764Z,99697.16
2022-11-17T09:47:13.141Z,99693.63
2022-11-17T09:49:59.379Z,99692.75
2022-11-17T09:52:30.033Z,99697.16
2022-11-17T09:54:59.708Z,99689.06
2022-11-17T09:57:33.244Z,99691.19
2022-11-17T10:00:16.254Z,99707.94
2022-11-17T10:02:43.561Z,99692.13
2022-11-17T10:05:20.813Z,99688.78
2022-11-17T10:07:51.374Z,99687.09
2022-11-17T10:10:27.992Z,99683.06
2022-11-17T10:12:58.106Z,99676.66
2022-11-17T10:15:30.812Z,99670.09
2022-11-17T10:17:57.425Z,99683.31
2022-11-17T10:20:24.383Z,99680.19
2022-11-17T10:22:53.978Z,99680.34
2022-11-17T10:25:40.708Z,99682.06
2022-11-17T10:28:17.669Z,99678.69
2022-11-17T10:30:53.590Z,99666.38
2022-11-17T10:33:35.280Z,99663.19
2022-11-17T10:36:03.016Z,99667.19
2022-11-17T10:38:30.792Z,99677.66
2022-11-17T10:41:00.616Z,99663.31
2022-11-17T10:43:36.785Z,99660.28
2022-11-17T10:46:16.772Z,99667.16
2022-11-17T10:49:01.070Z,99666.78
2022-11-17T10:51:32.033Z,99691.38
2022-11-17T10:54:02.782Z,99677.59
2022-11-17T10:56:30.952Z,99667.31
2022-11-17T10:59:34.863Z,99664.34
2022-11-17T11:02:37.209Z,99660.06
2022-11-17T11:05:09.729Z,99650.38
2022-11-17T11:07:37.262Z,99660.63
2022-11-17T11:10:17.442Z,99660.09
2022-11-17T11:13:06.422Z,99653.84
2022-11-17T11:15:35.633Z,99652.22
2022-11-17T11:18:07.472Z,99660.59
2022-11-17T11:20:50.277Z,99643.53
2022-11-17T11:23:35.393Z,99642.06
2022-11-17T11:26:17.109Z,99645.91
2022-11-17T11:28:54.369Z,99643.19
2022-11-17T11:32:02.443Z,99643.38
2022-11-17T11:35:07.184Z,99645.06
2022-11-17T11:37:46.533Z,99636.44
2022-11-17T11:40:26.824Z,99640.53
2022-11-17T11:43:05.209Z,99642.06
2022-11-17T11:45:59.564Z,99635.44
2022-11-17T11:48:36.291Z,99642.13
2022-11-17T11:51:16.039Z,99638.81
2022-11-17T11:54:00.908Z,99631.56
2022-11-17T11:56:41.141Z,99631.16
2022-11-17T11:59:15.764Z,99623.75
2022-11-17T12:01:48.605Z,99632.13
2022-11-17T12:04:20.905Z,99633.81
2022-11-17T12:07:01.831Z,99628.72
2022-11-17T12:09:31.820Z,99629.75
2022-11-17T12:12:02.518Z,99630.69
2022-11-17T12:14:32.821Z,99617.16
2022-11-17T12:17:13.062Z,99621.97
2022-11-17T12:19:54.148Z,99626.81
2022-11-17T12:22:29.540Z,99616.31
2022-11-17T12:25:16.278Z,99630.75
2022-11-17T12:27:49.769Z,99624.53
2022-11-17T12:30:34.795Z,99622.09
2022-11-17T12:33:05.662Z,99609.59
2022-11-17T12:35:37.827Z,99619.03
2022-11-17T12:38:16.558Z,99618.38
2022-11-17T12:40:51.022Z,99600.78
2022-11-17T12:43:25.288Z,99599.31
2022-11-17T12:46:10.424Z,99598.97
2022-11-17T12:48:40.036Z,99600.75
2022-11-17T12:51:23.592Z,99606.69
2022-11-17T12:54:16.381Z,99602.19
2022-11-17T12:57:07.573Z,99594.88
2022-11-17T12:59:37.152Z,99595.63
2022-11-17T13:02:28.549Z,99597.16
2022-11-17T13:05:01.089Z,99593.81
2022-11-17T13:07:27.660Z,99596.59
2022-11-17T13:09:57.291Z,99585.03
2022-11-17T13:12:28.807Z,99596.28
2022-11-17T13:14:57.479Z,99591.91
2022-11-17T13:17:32.718Z,99595.16
2022-11-17T13:20:17.642Z,99597.66
2022-11-17T13:22:58.983Z,99586.88
2022-11-17T13:25:25.609Z,99589.94
2022-11-17T13:27:57.238Z,99581.09
2022-11-17T13:30:28.125Z,99591.69
2022-11-17T13:32:55.851Z,99583.28
2022-11-17T13:35:25.523Z,99584.31
2022-11-17T13:38:04.173Z,99590.19
2022-11-17T13:40:33.923Z,99592.16
2022-11-17T13:43:03.189Z,99575.53
2022-11-17T13:45:29.975Z,99577.69
2022-11-17T13:47:56.672Z,99561.88
2022-11-17T13:50:26.123Z,99565.53
2022-11-17T13:53:06.150Z,99564.22
2022-11-17T13:55:34.113Z,99575.72
2022-11-17T13:58:07.812Z,99571.22
2022-11-17T14:00:34.941Z,99577.81
2022-11-17T14:03:06.239Z,99581.03
2022-11-17T14:05:34.172Z,99582.44
2022-11-17T14:08:14.157Z,99578.22
2022-11-17T14:10:40.813Z,99572.06
2022-11-17T14:13:19.453Z,99575.94
2022-11-17T14:15:53.858Z,99572.75
2022-11-17T14:18:30.814Z,99576.66
2022-11-17T14:21:14.412Z,99574.66
2022-11-17T14:23:42.475Z,99577.19
2022-11-17T14:26:21.257Z,99572.63
2022-11-17T14:28:49.784Z,99567.50
2022-11-17T14:31:16.779Z,99565.72
2022-11-17T14:33:43.972Z,99568.97
2022-11-17T14:36:14.666Z,99574.50
2022-11-17T14:38:42.583Z,99571.19
2022-11-17T14:41:09.314Z,99576.06
2022-11-17T14:43:35.903Z,99576.91
2022-11-17T14:46:03.169Z,99575.94
2022-11-17T14:48:30.430Z,99573.09
2022-11-17T14:51:00.397Z,99579.09
2022-11-17T14:53:27.268Z,99571.25
2022-11-17T14:55:53.904Z,99568.91
2022-11-17T14:58:20.757Z,99565.16
2022-11-17T15:00:47.495Z,99574.94
2022-11-17T15:03:14.143Z,99574.09
2022-11-17T15:05:48.099Z,99576.28
2022-11-17T15:08:14.826Z,99569.28
2022-11-17T15:10:45.524Z,99569.56
2022-11-17T15:13:12.397Z,99571.19
2022-11-17T15:15:39.289Z,99562.94
2022-11-17T15:18:05.949Z,99571.88
2022-11-17T15:20:32.476Z,99565.22
2022-11-17T15:23:03.068Z,99575.16
2022-11-17T15:25:29.935Z,99570.13
2022-11-17T15:27:56.548Z,99566.19
2022-11-17T15:30:23.251Z,99571.88
2022-11-17T15:32:52.769Z,99567.91
2022-11-17T15:35:19.280Z,99572.28
2022-11-17T15:37:46.126Z,99567.59
2022-11-17T15:40:17.980Z,99564.63
2022-11-17T15:42:45.839Z,99568.19
2022-11-17T15:45:12.492Z,99570.72
2022-11-17T15:47:38.962Z,99574.75
2022-11-17T15:50:05.872Z,99572.75
2022-11-17T15:52:56.492Z,99570.53
2022-11-17T15:55:19.230Z,99563.50
2022-11-17T15:57:46.062Z,99571.03
2022-11-17T16:00:13.593Z,99561.31
2022-11-17T16:02:41.296Z,99564.19
2022-11-17T16:05:08.100Z,99562.19
2022-11-17T16:07:34.648Z,99572.41
2022-11-17T16:10:01.469Z,99568.38
2022-11-17T16:12:27.933Z,99576.25
2022-11-17T16:14:54.436Z,99575.59
2022-11-17T16:17:20.981Z,99567.38
2022-11-17T16:19:47.509Z,99570.72
2022-11-17T16:22:14.008Z,99562.97
2022-11-17T16:24:40.596Z,99570.06
2022-11-17T16:27:07.106Z,99562.00
2022-11-17T16:29:33.579Z,99559.00
2022-11-17T16:32:00.157Z,99565.00
2022-11-17T16:34:26.794Z,99558.94
2022-11-17T16:36:53.305Z,99564.47
2022-11-17T16:39:20.403Z,99558.28
2022-11-17T16:41:47.352Z,99568.53
2022-11-17T16:44:16.483Z,99562.66
2022-11-17T16:46:45.429Z,99571.22
2022-11-17T16:49:14.522Z,99570.22
2022-11-17T16:51:47.100Z,99564.69
2022-11-17T16:54:13.665Z,99572.91
2022-11-17T16:56:40.330Z,99557.63
2022-11-17T16:59:07.459Z,99551.13
2022-11-17T17:01:35.510Z,99552.78
2022-11-17T17:04:04.553Z,99549.25
2022-11-17T17:06:31.400Z,99548.25
2022-11-17T17:09:03.614Z,99553.63
2022-11-17T17:11:32.131Z,99549.44
2022-11-17T17:14:00.363Z,99543.03
2022-11-17T17:16:27.056Z,99546.88
2022-11-17T17:19:01.793Z,99546.91
2022-11-17T17:21:29.324Z,99547.22
2022-11-17T17:23:56.334Z,99554.31
2022-11-17T17:26:24.777Z,99544.22
2022-11-17T17:28:54.539Z,99553.59
2022-11-17T17:31:22.611Z,99548.09
2022-11-17T17:33:50.747Z,99537.31
2022-11-17T17:36:20.208Z,99539.34
2022-11-17T17:38:51.815Z,99531.81
2022-11-17T17:41:23.225Z,99522.88
2022-11-17T17:43:56.179Z,99520.06
2022-11-17T17:46:23.247Z,99524.09
2022-11-17T17:48:49.947Z,99521.41
2022-11-17T17:51:19.444Z,99519.06
2022-11-17T17:53:50.177Z,99523.41
2022-11-17T17:56:19.180Z,99523.25
2022-11-17T17:58:48.089Z,99521.25
2022-11-17T18:01:20.465Z,99526.94
2022-11-17T18:03:48.781Z,99523.25
2022-11-17T18:06:17.832Z,99525.13
2022-11-17T18:08:45.297Z,99517.91
2022-11-17T18:11:14.109Z,99515.69
2022-11-17T18:13:42.517Z,99511.84
2022-11-17T18:16:15.457Z,99502.44
2022-11-17T18:18:43.088Z,99501.28
2022-11-17T18:21:12.633Z,99496.91
2022-11-17T18:23:39.651Z,99499.25
2022-11-17T18:26:15.638Z,99493.22
2022-11-17T18:28:44.379Z,99494.06
2022-11-17T18:31:11.385Z,99490.50
2022-11-17T18:33:37.980Z,99495.09
2022-11-17T18:36:07.043Z,99495.56
2022-11-17T18:38:35.832Z,99489.38
2022-11-17T18:41:07.354Z,99483.84
2022-11-17T18:43:34.197Z,99482.81
2022-11-17T18:46:05.092Z,99477.47
2022-11-17T18:48:36.603Z,99479.81
2022-11-17T18:51:19.235Z,99486.53
2022-11-17T18:53:47.220Z,99493.75
2022-11-17T18:56:16.289Z,99488.06
2022-11-17T18:58:43.588Z,99495.91
2022-11-17T19:01:11.655Z,99485.53
2022-11-17T19:03:39.573Z,99487.84
2022-11-17T19:06:07.704Z,99474.13
2022-11-17T19:08:35.768Z,99471.44
2022-11-17T19:11:06.234Z,99480.50
2022-11-17T19:13:35.524Z,99472.78
2022-11-17T19:16:22.460Z,99475.81
2022-11-17T19:18:50.816Z,99470.75
2022-11-17T19:21:22.016Z,99466.38
2022-11-17T19:23:51.751Z,99457.16
2022-11-17T19:26:24.974Z,99464.38
2022-11-17T19:28:55.946Z,99465.66
2022-11-17T19:31:22.879Z,99464.84
2022-11-17T19:33:50.275Z,99468.06
2022-11-17T19:36:19.873Z,99462.31
2022-11-17T19:38:51.183Z,99465.81
2022-11-17T19:41:20.638Z,99466.41
2022-11-17T19:43:47.230Z,99456.09
2022-11-17T19:46:16.822Z,99454.97
2022-11-17T19:48:44.053Z,99454.31
2022-11-17T19:51:13.521Z,99466.41
2022-11-17T19:53:40.489Z,99455.66
2022-11-17T19:56:07.908Z,99456.84
2022-11-17T19:58:34.847Z,99460.34
2022-11-17T20:01:09.606Z,99455.00
2022-11-17T20:03:37.309Z,99463.38
2022-11-17T20:06:04.750Z,99457.81
2022-11-17T20:08:32.098Z,99470.09
2022-11-17T20:11:13.512Z,99462.19
2022-11-17T20:13:41.846Z,99456.16
2022-11-17T20:16:19.324Z,99450.59
2022-11-17T20:18:50.125Z,99451.44
2022-11-17T20:21:17.120Z,99456.84
2022-11-17T20:23:43.768Z,99459.19
2022-11-17T20:26:16.275Z,99460.22
2022-11-17T20:28:43.480Z,99455.50
2022-11-17T20:31:15.137Z,99450.28
2022-11-17T20:33:43.012Z,99448.59
2022-11-17T20:36:13.358Z,99449.59
2022-11-17T20:38:40.029Z,99436.94
2022-11-17T20:41:07.286Z,99445.88
2022-11-17T20:43:34.992Z,99439.03
2022-11-17T20:46:02.102Z,99437.84
2022-11-17T20:48:34.251Z,99435.50
2022-11-17T20:51:08.018Z,99437.19
2022-11-17T20:53:34.701Z,99431.97
2022-11-17T20:56:03.057Z,99443.38
2022-11-17T20:58:30.759Z,99432.81
2022-11-17T21:00:57.825Z,99428.44
2022-11-17T21:03:25.995Z,99421.75
2022-11-17T21:05:58.822Z,99417.06
2022-11-17T21:08:30.079Z,99413.84
2022-11-17T21:10:57.847Z,99416.72
2022-11-17T21:13:25.414Z,99406.50
2022-11-17T21:16:12.082Z,99405.31
2022-11-17T21:18:46.062Z,99407.69
2022-11-17T21:21:13.446Z,99401.53
2022-11-17T21:23:41.190Z,99399.00
2022-11-17T21:26:13.384Z,99394.50
2022-11-17T21:28:41.667Z,99390.66
2022-11-17T21:31:23.808Z,99388.97
2022-11-17T21:34:01.600Z,99391.66
2022-11-17T21:36:30.257Z,99392.34
2022-11-17T21:38:57.533Z,99396.34
2022-11-17T21:41:35.391Z,99384.94
2022-11-17T21:44:03.363Z,99382.09
2022-11-17T21:46:32.192Z,99386.97
2022-11-17T21:49:00.229Z,99383.63
2022-11-17T21:51:35.107Z,99389.16
2022-11-17T21:54:06.722Z,99384.09
2022-11-17T21:56:33.653Z,99383.13
2022-11-17T21:59:10.596Z,99373.75
2022-11-17T22:01:37.460Z,99367.72
2022-11-17T22:04:04.969Z,99380.28
2022-11-17T22:06:31.808Z,99379.28
2022-11-17T22:08:59.424Z,99372.91
2022-11-17T22:11:38.149Z,99379.09
2022-11-17T22:14:13.717Z,99374.41
2022-11-17T22:16:52.975Z,99377.59
2022-11-17T22:19:22.132Z,99376.41
2022-11-17T22:21:51.196Z,99375.56
2022-11-17T22:24:18.303Z,99369.53
2022-11-17T22:26:45.418Z,99377.41
2022-11-17T22:29:20.168Z,99374.25
2022-11-17T22:31:48.757Z,99368.56
2022-11-17T22:34:15.816Z,99362.84
2022-11-17T22:36:42.594Z,99371.88
2022-11-17T22:39:09.478Z,99362.50
2022-11-17T22:41:36.285Z,99367.56
2022-11-17T22:44:03.217Z,99360.19
2022-11-17T22:46:29.967Z,99368.91
2022-11-17T22:49:00.816Z,99362.50
2022-11-17T22:51:48.798Z,99367.22
2022-11-17T22:54:15.329Z,99376.09
2022-11-17T22:56:41.995Z,99376.09
2022-11-17T22:59:08.828Z,99367.56
2022-11-17T23:01:35.385Z,99368.53
2022-11-17T23:04:01.997Z,99366.38
2022-11-17T23:06:28.651Z,99375.59
2022-11-17T23:08:57.468Z,99371.75
2022-11-17T23:11:40.037Z,99371.25
2022-11-17T23:14:09.138Z,99372.56
2022-11-17T23:16:39.204Z,99382.13
2022-11-17T23:19:06.801Z,99379.59
2022-11-17T23:21:33.419Z,99379.78
2022-11-17T23:24:00.019Z,99380.13
2022-11-17T23:26:26.856Z,99376.94
2022-11-17T23:28:53.490Z,99375.25
2022-11-17T23:31:20.483Z,99369.91
2022-11-17T23:33:47.690Z,99369.72
2022-11-17T23:36:18.560Z,99365.00
2022-11-17T23:38:46.038Z,99368.72
2022-11-17T23:41:14.788Z,99359.66
2022-11-17T23:43:41.871Z,99356.13
2022-11-17T23:46:11.874Z,99356.97
2022-11-17T23:48:38.696Z,99362.16
2022-11-17T23:51:10.695Z,99363.69
2022-11-17T23:53:37.590Z,99356.25
2022-11-17T23:56:05.213Z,99348.41
2022-11-17T23:58:32.138Z,99343.41
